Igor I Sikorsky Memorial Airport Bridgeport US
ICAO: KBDR
IATA: BDR
Category: Medium
Scheduled Services: Yes

Elevation: 9 ft
TransAlt. 18000 ft.

Airport Communications:
NEW YORK APP/DEP:124.075
ATIS:119.15
CLNC DEL:121.75
CTAF:120.9
GND:121.9
BRIDGEPORT RDO:108.8
BRIDGEPORT TWR:120.9
UNICOM:123

KBDR Zoom In..

If Map Doesn't Load, Click Here

Runways:

(A) RW 06 length 4677 ft width 150 ft
ILS 110.70 / hdg 58

(B) RW 11 length 4761 ft width 150 ft
---- / hdg 111

(C) RW 24 length 4677 ft width 150 ft
---- / hdg 238

(D) RW 29 length 4761 ft width 150 ft
---- / hdg 291

Location; KBDR
Day. 24 / Time. 04.52 Zulu
* Altimeter: 30.32
* Temperature: 13° c. 55.4°f.
* Wind from: 000° Speed 00 kn.
Dewpoint: 12° c.
Visibility: 10 Statute Miles.
Clouds: Few 4400 ft.

KBDR 240452Z AUTO 00000KT 10SM FEW044 13/12 A3032 RMK AO2 SLP267 T01330117 401890133


Wind - Calm.

 
 
jpsmedia.com for Web Design worldairports.se 2018   terms of use